sensor_id;sensor_type;location;lat;lon;timestamp;temperature;humidity
15386;DHT22;7791;47.246;9.648;2023-11-21T00:00:40;6.50;99.90
15386;DHT22;7791;47.246;9.648;2023-11-21T00:03:27;6.70;99.90
15386;DHT22;7791;47.246;9.648;2023-11-21T00:06:08;6.80;99.90
15386;DHT22;7791;47.246;9.648;2023-11-21T00:11:47;6.80;99.90
15386;DHT22;7791;47.246;9.648;2023-11-21T00:14:19;6.90;99.90
15386;DHT22;7791;47.246;9.648;2023-11-21T00:17:17;7.00;99.90
15386;DHT22;7791;47.246;9.648;2023-11-21T00:20:03;7.10;99.90
15386;DHT22;7791;47.246;9.648;2023-11-21T00:25:30;7.20;99.90
15386;DHT22;7791;47.246;9.648;2023-11-21T00:28:15;7.20;99.90
15386;DHT22;7791;47.246;9.648;2023-11-21T00:31:06;7.30;99.90
15386;DHT22;7791;47.246;9.648;2023-11-21T00:36:49;7.30;99.90
15386;DHT22;7791;47.246;9.648;2023-11-21T00:39:35;7.30;99.90
15386;DHT22;7791;47.246;9.648;2023-11-21T00:42:13;7.20;99.90
15386;DHT22;7791;47.246;9.648;2023-11-21T00:47:53;7.10;99.90
15386;DHT22;7791;47.246;9.648;2023-11-21T00:50:23;7.00;99.90
15386;DHT22;7791;47.246;9.648;2023-11-21T00:53:02;6.90;99.90
15386;DHT22;7791;47.246;9.648;2023-11-21T00:55:43;6.80;99.90
15386;DHT22;7791;47.246;9.648;2023-11-21T00:58:38;6.80;99.90
15386;DHT22;7791;47.246;9.648;2023-11-21T01:01:17;6.70;99.90
15386;DHT22;7791;47.246;9.648;2023-11-21T01:03:50;6.50;99.90
15386;DHT22;7791;47.246;9.648;2023-11-21T01:06:25;6.50;99.90
15386;DHT22;7791;47.246;9.648;2023-11-21T01:11:48;6.50;99.90
15386;DHT22;7791;47.246;9.648;2023-11-21T01:14:24;6.50;99.90
15386;DHT22;7791;47.246;9.648;2023-11-21T01:17:14;6.60;99.90
15386;DHT22;7791;47.246;9.648;2023-11-21T01:19:59;6.60;99.90
15386;DHT22;7791;47.246;9.648;2023-11-21T01:22:35;6.60;99.90
15386;DHT22;7791;47.246;9.648;2023-11-21T01:25:12;6.50;99.90
15386;DHT22;7791;47.246;9.648;2023-11-21T01:27:55;6.50;99.90
15386;DHT22;7791;47.246;9.648;2023-11-21T01:30:25;6.50;99.90
15386;DHT22;7791;47.246;9.648;2023-11-21T01:33:09;6.50;99.90
15386;DHT22;7791;47.246;9.648;2023-11-21T01:35:50;6.60;99.90
15386;DHT22;7791;47.246;9.648;2023-11-21T01:38:38;6.70;99.90
15386;DHT22;7791;47.246;9.648;2023-11-21T01:41:27;6.80;99.90
15386;DHT22;7791;47.246;9.648;2023-11-21T01:44:00;6.80;99.90
15386;DHT22;7791;47.246;9.648;2023-11-21T01:49:28;6.80;99.90
15386;DHT22;7791;47.246;9.648;2023-11-21T01:52:19;7.00;99.90
15386;DHT22;7791;47.246;9.648;2023-11-21T01:55:19;7.00;99.90
15386;DHT22;7791;47.246;9.648;2023-11-21T01:57:54;7.20;99.90
15386;DHT22;7791;47.246;9.648;2023-11-21T02:00:39;7.10;99.90
15386;DHT22;7791;47.246;9.648;2023-11-21T02:03:25;7.10;99.90
15386;DHT22;7791;47.246;9.648;2023-11-21T02:06:11;7.10;99.90
15386;DHT22;7791;47.246;9.648;2023-11-21T02:08:55;7.20;99.90
15386;DHT22;7791;47.246;9.648;2023-11-21T02:11:31;7.30;99.90
15386;DHT22;7791;47.246;9.648;2023-11-21T02:17:02;7.40;99.90
15386;DHT22;7791;47.246;9.648;2023-11-21T02:19:43;7.40;99.90
15386;DHT22;7791;47.246;9.648;2023-11-21T02:22:23;7.50;99.90
15386;DHT22;7791;47.246;9.648;2023-11-21T02:26:01;7.60;99.90
15386;DHT22;7791;47.246;9.648;2023-11-21T02:30:47;7.40;99.90
15386;DHT22;7791;47.246;9.648;2023-11-21T02:33:28;7.40;99.90
15386;DHT22;7791;47.246;9.648;2023-11-21T02:36:07;7.40;99.90
15386;DHT22;7791;47.246;9.648;2023-11-21T02:38:43;7.30;99.90
15386;DHT22;7791;47.246;9.648;2023-11-21T02:41:28;7.30;99.90
15386;DHT22;7791;47.246;9.648;2023-11-21T02:44:12;7.30;99.90
15386;DHT22;7791;47.246;9.648;2023-11-21T02:46:53;7.30;99.90
15386;DHT22;7791;47.246;9.648;2023-11-21T02:49:39;7.30;99.90
15386;DHT22;7791;47.246;9.648;2023-11-21T02:52:15;7.40;99.90
15386;DHT22;7791;47.246;9.648;2023-11-21T02:57:38;7.40;99.90
15386;DHT22;7791;47.246;9.648;2023-11-21T03:00:27;7.20;99.90
15386;DHT22;7791;47.246;9.648;2023-11-21T03:03:16;7.30;99.90
15386;DHT22;7791;47.246;9.648;2023-11-21T03:06:00;7.40;99.90
15386;DHT22;7791;47.246;9.648;2023-11-21T03:08:41;7.50;99.90
15386;DHT22;7791;47.246;9.648;2023-11-21T03:11:19;7.40;99.90
15386;DHT22;7791;47.246;9.648;2023-11-21T03:13:58;7.50;99.90
15386;DHT22;7791;47.246;9.648;2023-11-21T03:16:31;7.60;99.90
15386;DHT22;7791;47.246;9.648;2023-11-21T03:19:07;7.50;99.90
15386;DHT22;7791;47.246;9.648;2023-11-21T03:21:42;7.50;99.90
15386;DHT22;7791;47.246;9.648;2023-11-21T03:24:33;7.60;99.90
15386;DHT22;7791;47.246;9.648;2023-11-21T03:27:08;7.50;99.90
15386;DHT22;7791;47.246;9.648;2023-11-21T03:29:58;7.60;99.90
15386;DHT22;7791;47.246;9.648;2023-11-21T03:38:43;7.30;99.90
15386;DHT22;7791;47.246;9.648;2023-11-21T03:41:17;7.30;99.90
15386;DHT22;7791;47.246;9.648;2023-11-21T03:44:00;7.20;99.90
15386;DHT22;7791;47.246;9.648;2023-11-21T03:46:41;7.20;99.90
15386;DHT22;7791;47.246;9.648;2023-11-21T03:49:16;7.30;99.90
15386;DHT22;7791;47.246;9.648;2023-11-21T03:51:53;7.30;99.90
15386;DHT22;7791;47.246;9.648;2023-11-21T03:54:28;7.40;99.90
15386;DHT22;7791;47.246;9.648;2023-11-21T03:57:07;7.50;99.90
15386;DHT22;7791;47.246;9.648;2023-11-21T03:59:36;7.50;99.90
15386;DHT22;7791;47.246;9.648;2023-11-21T04:02:23;7.50;99.90
15386;DHT22;7791;47.246;9.648;2023-11-21T04:05:08;7.50;99.90
15386;DHT22;7791;47.246;9.648;2023-11-21T04:07:56;7.40;99.90
15386;DHT22;7791;47.246;9.648;2023-11-21T04:10:50;7.40;99.90
15386;DHT22;7791;47.246;9.648;2023-11-21T04:16:26;7.50;99.90
15386;DHT22;7791;47.246;9.648;2023-11-21T04:19:12;7.50;99.90
15386;DHT22;7791;47.246;9.648;2023-11-21T04:21:42;7.50;99.90
15386;DHT22;7791;47.246;9.648;2023-11-21T04:24:20;7.50;99.90
15386;DHT22;7791;47.246;9.648;2023-11-21T04:26:55;7.60;99.90
15386;DHT22;7791;47.246;9.648;2023-11-21T04:29:36;7.60;99.90
15386;DHT22;7791;47.246;9.648;2023-11-21T04:32:16;7.70;99.90
15386;DHT22;7791;47.246;9.648;2023-11-21T04:38:01;7.30;99.90
15386;DHT22;7791;47.246;9.648;2023-11-21T04:40:40;7.50;99.90
15386;DHT22;7791;47.246;9.648;2023-11-21T04:46:31;7.30;99.90
15386;DHT22;7791;47.246;9.648;2023-11-21T04:52:19;7.30;99.90
15386;DHT22;7791;47.246;9.648;2023-11-21T04:54:58;7.20;99.90
15386;DHT22;7791;47.246;9.648;2023-11-21T04:57:45;7.40;99.90
15386;DHT22;7791;47.246;9.648;2023-11-21T05:00:28;7.40;99.90
15386;DHT22;7791;47.246;9.648;2023-11-21T05:06:02;7.40;99.90
15386;DHT22;7791;47.246;9.648;2023-11-21T05:08:38;7.50;99.90
15386;DHT22;7791;47.246;9.648;2023-11-21T05:14:08;7.60;99.90
15386;DHT22;7791;47.246;9.648;2023-11-21T05:16:57;7.60;99.90
15386;DHT22;7791;47.246;9.648;2023-11-21T05:19:48;7.60;99.90
15386;DHT22;7791;47.246;9.648;2023-11-21T05:22:24;7.60;99.90
15386;DHT22;7791;47.246;9.648;2023-11-21T05:24:58;7.60;99.90
15386;DHT22;7791;47.246;9.648;2023-11-21T05:27:33;7.70;99.90
15386;DHT22;7791;47.246;9.648;2023-11-21T05:33:06;7.70;99.90
15386;DHT22;7791;47.246;9.648;2023-11-21T05:35:35;7.50;99.90
15386;DHT22;7791;47.246;9.648;2023-11-21T05:38:22;7.50;99.90
15386;DHT22;7791;47.246;9.648;2023-11-21T05:43:56;7.50;99.90
15386;DHT22;7791;47.246;9.648;2023-11-21T05:46:35;7.30;99.90
15386;DHT22;7791;47.246;9.648;2023-11-21T05:49:06;7.30;99.90
15386;DHT22;7791;47.246;9.648;2023-11-21T05:51:33;7.40;99.90
15386;DHT22;7791;47.246;9.648;2023-11-21T05:54:12;7.40;99.90
15386;DHT22;7791;47.246;9.648;2023-11-21T05:56:42;7.50;99.90
15386;DHT22;7791;47.246;9.648;2023-11-21T06:02:35;7.60;99.90
15386;DHT22;7791;47.246;9.648;2023-11-21T06:08:22;7.50;99.90
15386;DHT22;7791;47.246;9.648;2023-11-21T06:11:12;7.60;99.90
15386;DHT22;7791;47.246;9.648;2023-11-21T06:13:51;7.60;99.90
15386;DHT22;7791;47.246;9.648;2023-11-21T06:19:21;7.60;99.90
15386;DHT22;7791;47.246;9.648;2023-11-21T06:22:00;7.60;99.90
15386;DHT22;7791;47.246;9.648;2023-11-21T06:24:36;7.60;99.90
15386;DHT22;7791;47.246;9.648;2023-11-21T06:27:12;7.60;99.90
15386;DHT22;7791;47.246;9.648;2023-11-21T06:29:44;7.60;99.90
15386;DHT22;7791;47.246;9.648;2023-11-21T06:32:17;7.60;99.90
15386;DHT22;7791;47.246;9.648;2023-11-21T06:34:55;7.60;99.90
15386;DHT22;7791;47.246;9.648;2023-11-21T06:37:28;7.40;99.90
15386;DHT22;7791;47.246;9.648;2023-11-21T06:40:13;7.40;99.90
15386;DHT22;7791;47.246;9.648;2023-11-21T06:42:57;7.40;99.90
15386;DHT22;7791;47.246;9.648;2023-11-21T06:45:23;7.50;99.90
15386;DHT22;7791;47.246;9.648;2023-11-21T06:48:05;7.50;99.90
15386;DHT22;7791;47.246;9.648;2023-11-21T06:53:46;7.60;99.90
15386;DHT22;7791;47.246;9.648;2023-11-21T06:56:40;7.50;99.90
15386;DHT22;7791;47.246;9.648;2023-11-21T06:59:33;7.40;99.90
15386;DHT22;7791;47.246;9.648;2023-11-21T07:02:25;7.50;99.90
15386;DHT22;7791;47.246;9.648;2023-11-21T07:05:04;7.50;99.90
15386;DHT22;7791;47.246;9.648;2023-11-21T07:07:52;7.60;99.90
15386;DHT22;7791;47.246;9.648;2023-11-21T07:10:45;7.60;99.90
15386;DHT22;7791;47.246;9.648;2023-11-21T07:13:28;7.60;99.90
15386;DHT22;7791;47.246;9.648;2023-11-21T07:16:13;7.70;99.90
15386;DHT22;7791;47.246;9.648;2023-11-21T07:18:52;7.80;99.90
15386;DHT22;7791;47.246;9.648;2023-11-21T07:21:27;7.80;99.90
15386;DHT22;7791;47.246;9.648;2023-11-21T07:23:55;7.80;99.90
15386;DHT22;7791;47.246;9.648;2023-11-21T07:26:30;7.80;99.90
15386;DHT22;7791;47.246;9.648;2023-11-21T07:29:11;7.90;99.90
15386;DHT22;7791;47.246;9.648;2023-11-21T07:31:49;7.90;99.90
15386;DHT22;7791;47.246;9.648;2023-11-21T07:37:23;7.50;99.90
15386;DHT22;7791;47.246;9.648;2023-11-21T07:40:03;7.50;99.90
15386;DHT22;7791;47.246;9.648;2023-11-21T07:42:39;7.80;99.90
15386;DHT22;7791;47.246;9.648;2023-11-21T07:45:15;7.90;99.90
15386;DHT22;7791;47.246;9.648;2023-11-21T07:48:07;8.20;99.90
15386;DHT22;7791;47.246;9.648;2023-11-21T07:50:45;8.30;99.90
15386;DHT22;7791;47.246;9.648;2023-11-21T07:53:30;8.50;99.90
15386;DHT22;7791;47.246;9.648;2023-11-21T07:56:09;8.70;99.90
15386;DHT22;7791;47.246;9.648;2023-11-21T07:58:44;8.80;99.90
15386;DHT22;7791;47.246;9.648;2023-11-21T08:01:20;8.70;99.90
15386;DHT22;7791;47.246;9.648;2023-11-21T08:03:58;8.60;99.90
15386;DHT22;7791;47.246;9.648;2023-11-21T08:06:37;8.70;99.90
15386;DHT22;7791;47.246;9.648;2023-11-21T08:09:14;8.90;99.90
15386;DHT22;7791;47.246;9.648;2023-11-21T08:11:50;9.00;99.90
15386;DHT22;7791;47.246;9.648;2023-11-21T08:14:23;9.10;99.90
15386;DHT22;7791;47.246;9.648;2023-11-21T08:17:07;9.10;99.90
15386;DHT22;7791;47.246;9.648;2023-11-21T08:22:45;9.50;99.90
15386;DHT22;7791;47.246;9.648;2023-11-21T08:25:10;9.70;99.90
15386;DHT22;7791;47.246;9.648;2023-11-21T08:27:47;9.90;99.90
15386;DHT22;7791;47.246;9.648;2023-11-21T08:30:18;10.00;99.90
15386;DHT22;7791;47.246;9.648;2023-11-21T08:32:58;10.20;99.90
15386;DHT22;7791;47.246;9.648;2023-11-21T08:35:33;10.20;99.90
15386;DHT22;7791;47.246;9.648;2023-11-21T08:38:03;10.40;99.90
15386;DHT22;7791;47.246;9.648;2023-11-21T08:40:36;10.40;99.90
15386;DHT22;7791;47.246;9.648;2023-11-21T08:43:10;10.50;99.90
15386;DHT22;7791;47.246;9.648;2023-11-21T08:45:49;10.80;99.90
15386;DHT22;7791;47.246;9.648;2023-11-21T08:48:24;10.90;99.90
15386;DHT22;7791;47.246;9.648;2023-11-21T08:51:05;11.10;99.90
15386;DHT22;7791;47.246;9.648;2023-11-21T08:53:37;11.30;99.90
15386;DHT22;7791;47.246;9.648;2023-11-21T08:56:10;11.30;99.90
15386;DHT22;7791;47.246;9.648;2023-11-21T08:58:44;11.40;99.90
15386;DHT22;7791;47.246;9.648;2023-11-21T09:04:20;11.40;99.90
15386;DHT22;7791;47.246;9.648;2023-11-21T09:07:02;11.00;99.90
15386;DHT22;7791;47.246;9.648;2023-11-21T09:09:40;10.90;99.90
15386;DHT22;7791;47.246;9.648;2023-11-21T09:12:21;11.10;99.90
15386;DHT22;7791;47.246;9.648;2023-11-21T09:15:07;11.20;99.90
15386;DHT22;7791;47.246;9.648;2023-11-21T09:17:52;11.10;99.90
15386;DHT22;7791;47.246;9.648;2023-11-21T09:20:21;11.20;99.90
15386;DHT22;7791;47.246;9.648;2023-11-21T09:22:59;11.30;99.90
15386;DHT22;7791;47.246;9.648;2023-11-21T09:25:35;11.20;99.90
15386;DHT22;7791;47.246;9.648;2023-11-21T09:28:10;11.20;99.90
15386;DHT22;7791;47.246;9.648;2023-11-21T09:34:02;10.90;99.90
15386;DHT22;7791;47.246;9.648;2023-11-21T09:36:50;11.10;99.90
15386;DHT22;7791;47.246;9.648;2023-11-21T09:39:29;11.10;99.90
15386;DHT22;7791;47.246;9.648;2023-11-21T09:42:11;11.70;99.90
15386;DHT22;7791;47.246;9.648;2023-11-21T09:45:01;12.00;99.90
15386;DHT22;7791;47.246;9.648;2023-11-21T09:47:53;12.60;99.90
15386;DHT22;7791;47.246;9.648;2023-11-21T09:50:45;12.70;99.90
15386;DHT22;7791;47.246;9.648;2023-11-21T09:53:47;13.10;99.90
15386;DHT22;7791;47.246;9.648;2023-11-21T09:56:31;13.70;99.90
15386;DHT22;7791;47.246;9.648;2023-11-21T09:59:17;13.30;99.90
15386;DHT22;7791;47.246;9.648;2023-11-21T10:01:50;13.10;99.90
15386;DHT22;7791;47.246;9.648;2023-11-21T10:04:23;12.60;99.90
15386;DHT22;7791;47.246;9.648;2023-11-21T10:07:04;12.80;99.90
15386;DHT22;7791;47.246;9.648;2023-11-21T10:09:48;12.70;99.90
15386;DHT22;7791;47.246;9.648;2023-11-21T10:12:23;12.60;99.90
15386;DHT22;7791;47.246;9.648;2023-11-21T10:15:03;12.80;99.90
15386;DHT22;7791;47.246;9.648;2023-11-21T10:17:50;13.10;99.90
15386;DHT22;7791;47.246;9.648;2023-11-21T10:20:33;13.20;99.90
15386;DHT22;7791;47.246;9.648;2023-11-21T10:23:28;13.40;99.90
15386;DHT22;7791;47.246;9.648;2023-11-21T10:26:09;12.40;99.90
15386;DHT22;7791;47.246;9.648;2023-11-21T10:28:56;12.40;99.90
15386;DHT22;7791;47.246;9.648;2023-11-21T10:31:36;12.60;99.90
15386;DHT22;7791;47.246;9.648;2023-11-21T10:37:12;13.00;99.90
15386;DHT22;7791;47.246;9.648;2023-11-21T10:39:59;13.10;99.90
15386;DHT22;7791;47.246;9.648;2023-11-21T10:42:44;13.10;99.90
15386;DHT22;7791;47.246;9.648;2023-11-21T10:45:27;13.10;99.90
15386;DHT22;7791;47.246;9.648;2023-11-21T10:48:15;12.80;99.90
15386;DHT22;7791;47.246;9.648;2023-11-21T10:51:05;12.70;99.90
15386;DHT22;7791;47.246;9.648;2023-11-21T10:53:51;12.60;99.90
15386;DHT22;7791;47.246;9.648;2023-11-21T10:57:02;12.70;99.90
15386;DHT22;7791;47.246;9.648;2023-11-21T10:59:39;12.80;99.90
15386;DHT22;7791;47.246;9.648;2023-11-21T11:02:21;13.70;99.90
15386;DHT22;7791;47.246;9.648;2023-11-21T11:04:58;14.80;99.90
15386;DHT22;7791;47.246;9.648;2023-11-21T11:07:38;14.30;99.90
15386;DHT22;7791;47.246;9.648;2023-11-21T11:10:24;14.20;99.90
15386;DHT22;7791;47.246;9.648;2023-11-21T11:12:58;12.80;99.90
15386;DHT22;7791;47.246;9.648;2023-11-21T11:15:38;11.90;99.90
15386;DHT22;7791;47.246;9.648;2023-11-21T11:18:36;11.60;99.90
15386;DHT22;7791;47.246;9.648;2023-11-21T11:21:33;11.80;99.90
15386;DHT22;7791;47.246;9.648;2023-11-21T11:24:17;12.30;99.90
15386;DHT22;7791;47.246;9.648;2023-11-21T11:27:01;12.20;99.90
15386;DHT22;7791;47.246;9.648;2023-11-21T11:29:58;12.20;99.90
15386;DHT22;7791;47.246;9.648;2023-11-21T11:38:32;13.60;99.90
15386;DHT22;7791;47.246;9.648;2023-11-21T11:41:04;13.80;99.90
15386;DHT22;7791;47.246;9.648;2023-11-21T11:43:36;14.10;99.90
15386;DHT22;7791;47.246;9.648;2023-11-21T11:46:22;13.60;99.90
15386;DHT22;7791;47.246;9.648;2023-11-21T11:49:25;13.40;99.90
15386;DHT22;7791;47.246;9.648;2023-11-21T11:57:57;11.80;99.90
15386;DHT22;7791;47.246;9.648;2023-11-21T12:00:44;11.50;99.90
15386;DHT22;7791;47.246;9.648;2023-11-21T12:03:29;11.00;99.90
15386;DHT22;7791;47.246;9.648;2023-11-21T12:06:29;10.50;99.90
15386;DHT22;7791;47.246;9.648;2023-11-21T12:09:12;10.30;99.90
15386;DHT22;7791;47.246;9.648;2023-11-21T12:11:54;10.40;99.90
15386;DHT22;7791;47.246;9.648;2023-11-21T12:17:48;10.60;99.90
15386;DHT22;7791;47.246;9.648;2023-11-21T12:20:21;10.70;99.90
15386;DHT22;7791;47.246;9.648;2023-11-21T12:22:57;10.70;99.90
15386;DHT22;7791;47.246;9.648;2023-11-21T12:25:31;10.80;99.90
15386;DHT22;7791;47.246;9.648;2023-11-21T12:31:20;11.40;99.90
15386;DHT22;7791;47.246;9.648;2023-11-21T12:33:51;11.50;99.90
15386;DHT22;7791;47.246;9.648;2023-11-21T12:39:57;11.00;99.90
15386;DHT22;7791;47.246;9.648;2023-11-21T12:42:19;10.60;99.90
15386;DHT22;7791;47.246;9.648;2023-11-21T12:44:50;10.50;99.90
15386;DHT22;7791;47.246;9.648;2023-11-21T12:50:47;10.20;99.90
15386;DHT22;7791;47.246;9.648;2023-11-21T12:56:16;10.00;99.90
15386;DHT22;7791;47.246;9.648;2023-11-21T12:58:54;9.90;99.90
15386;DHT22;7791;47.246;9.648;2023-11-21T13:01:28;9.80;99.90
15386;DHT22;7791;47.246;9.648;2023-11-21T13:04:00;9.80;99.90
15386;DHT22;7791;47.246;9.648;2023-11-21T13:06:50;9.80;99.90
15386;DHT22;7791;47.246;9.648;2023-11-21T13:09:29;9.70;99.90
15386;DHT22;7791;47.246;9.648;2023-11-21T13:12:09;9.50;99.90
15386;DHT22;7791;47.246;9.648;2023-11-21T13:14:47;9.30;99.90
15386;DHT22;7791;47.246;9.648;2023-11-21T13:17:36;9.40;99.90
15386;DHT22;7791;47.246;9.648;2023-11-21T13:20:02;9.40;99.90
15386;DHT22;7791;47.246;9.648;2023-11-21T13:22:38;9.10;99.90
15386;DHT22;7791;47.246;9.648;2023-11-21T13:25:36;9.10;99.90
15386;DHT22;7791;47.246;9.648;2023-11-21T13:28:20;9.10;99.90
15386;DHT22;7791;47.246;9.648;2023-11-21T13:30:57;9.10;99.90
15386;DHT22;7791;47.246;9.648;2023-11-21T13:33:33;9.20;99.90
15386;DHT22;7791;47.246;9.648;2023-11-21T13:36:23;9.20;99.90
15386;DHT22;7791;47.246;9.648;2023-11-21T13:38:51;9.20;99.90
15386;DHT22;7791;47.246;9.648;2023-11-21T13:41:27;9.40;99.90
15386;DHT22;7791;47.246;9.648;2023-11-21T13:44:28;9.60;99.90
15386;DHT22;7791;47.246;9.648;2023-11-21T13:47:03;9.70;99.90
15386;DHT22;7791;47.246;9.648;2023-11-21T13:49:52;9.70;99.90
15386;DHT22;7791;47.246;9.648;2023-11-21T13:55:29;9.90;99.90
15386;DHT22;7791;47.246;9.648;2023-11-21T14:03:35;10.10;99.90
15386;DHT22;7791;47.246;9.648;2023-11-21T14:06:09;10.20;99.90
15386;DHT22;7791;47.246;9.648;2023-11-21T14:09:01;10.30;99.90
15386;DHT22;7791;47.246;9.648;2023-11-21T14:11:44;10.20;99.90
15386;DHT22;7791;47.246;9.648;2023-11-21T14:14:21;10.00;99.90
15386;DHT22;7791;47.246;9.648;2023-11-21T14:17:01;9.50;99.90
15386;DHT22;7791;47.246;9.648;2023-11-21T14:28:25;7.80;99.90
15386;DHT22;7791;47.246;9.648;2023-11-21T14:31:02;7.60;99.90
15386;DHT22;7791;47.246;9.648;2023-11-21T14:33:38;7.50;99.90
15386;DHT22;7791;47.246;9.648;2023-11-21T14:36:12;7.40;99.90
15386;DHT22;7791;47.246;9.648;2023-11-21T14:38:42;7.30;99.90
15386;DHT22;7791;47.246;9.648;2023-11-21T14:41:14;7.30;99.90
15386;DHT22;7791;47.246;9.648;2023-11-21T14:43:44;7.30;99.90
15386;DHT22;7791;47.246;9.648;2023-11-21T14:46:20;7.30;99.90
15386;DHT22;7791;47.246;9.648;2023-11-21T14:48:58;7.40;99.90
15386;DHT22;7791;47.246;9.648;2023-11-21T14:51:53;7.50;99.90
15386;DHT22;7791;47.246;9.648;2023-11-21T14:54:36;7.50;99.90
15386;DHT22;7791;47.246;9.648;2023-11-21T14:57:12;7.60;99.90
15386;DHT22;7791;47.246;9.648;2023-11-21T14:59:52;7.70;99.90
15386;DHT22;7791;47.246;9.648;2023-11-21T15:02:31;7.60;99.90
15386;DHT22;7791;47.246;9.648;2023-11-21T15:05:20;7.70;99.90
15386;DHT22;7791;47.246;9.648;2023-11-21T15:08:12;7.70;99.90
15386;DHT22;7791;47.246;9.648;2023-11-21T15:10:44;7.70;99.90
15386;DHT22;7791;47.246;9.648;2023-11-21T15:13:26;7.60;99.90
15386;DHT22;7791;47.246;9.648;2023-11-21T15:15:58;7.70;99.90
15386;DHT22;7791;47.246;9.648;2023-11-21T15:18:51;7.80;99.90
15386;DHT22;7791;47.246;9.648;2023-11-21T15:24:24;7.80;99.90
15386;DHT22;7791;47.246;9.648;2023-11-21T15:27:06;7.70;99.90
15386;DHT22;7791;47.246;9.648;2023-11-21T15:29:43;7.60;99.90
15386;DHT22;7791;47.246;9.648;2023-11-21T15:32:39;7.60;99.90
15386;DHT22;7791;47.246;9.648;2023-11-21T15:35:18;7.60;99.90
15386;DHT22;7791;47.246;9.648;2023-11-21T15:37:49;7.50;99.90
15386;DHT22;7791;47.246;9.648;2023-11-21T15:40:35;7.50;99.90
15386;DHT22;7791;47.246;9.648;2023-11-21T15:43:16;7.50;99.90
15386;DHT22;7791;47.246;9.648;2023-11-21T15:45:58;7.60;99.90
15386;DHT22;7791;47.246;9.648;2023-11-21T15:48:30;7.60;99.90
15386;DHT22;7791;47.246;9.648;2023-11-21T15:51:11;7.60;99.90
15386;DHT22;7791;47.246;9.648;2023-11-21T15:54:00;7.60;99.90
15386;DHT22;7791;47.246;9.648;2023-11-21T15:56:45;7.60;99.90
15386;DHT22;7791;47.246;9.648;2023-11-21T15:59:40;7.50;99.90
15386;DHT22;7791;47.246;9.648;2023-11-21T16:02:30;7.50;99.90
15386;DHT22;7791;47.246;9.648;2023-11-21T16:05:03;7.50;99.90
15386;DHT22;7791;47.246;9.648;2023-11-21T16:07:55;7.40;99.90
15386;DHT22;7791;47.246;9.648;2023-11-21T16:10:33;7.30;99.90
15386;DHT22;7791;47.246;9.648;2023-11-21T16:13:09;7.20;99.90
15386;DHT22;7791;47.246;9.648;2023-11-21T16:15:44;7.10;99.90
15386;DHT22;7791;47.246;9.648;2023-11-21T16:18:17;7.00;99.90
15386;DHT22;7791;47.246;9.648;2023-11-21T16:21:10;7.00;99.90
15386;DHT22;7791;47.246;9.648;2023-11-21T16:26:33;7.10;99.90
15386;DHT22;7791;47.246;9.648;2023-11-21T16:29:10;7.10;99.90
15386;DHT22;7791;47.246;9.648;2023-11-21T16:31:42;7.00;99.90
15386;DHT22;7791;47.246;9.648;2023-11-21T16:34:24;7.00;99.90
15386;DHT22;7791;47.246;9.648;2023-11-21T16:37:10;7.00;99.90
15386;DHT22;7791;47.246;9.648;2023-11-21T16:45:33;7.00;99.90
15386;DHT22;7791;47.246;9.648;2023-11-21T16:48:01;6.90;99.90
15386;DHT22;7791;47.246;9.648;2023-11-21T16:50:47;7.00;99.90
15386;DHT22;7791;47.246;9.648;2023-11-21T16:53:22;7.00;99.90
15386;DHT22;7791;47.246;9.648;2023-11-21T16:56:06;7.10;99.90
15386;DHT22;7791;47.246;9.648;2023-11-21T16:58:48;7.10;99.90
15386;DHT22;7791;47.246;9.648;2023-11-21T17:01:27;7.10;99.90
15386;DHT22;7791;47.246;9.648;2023-11-21T17:03:59;7.10;99.90
15386;DHT22;7791;47.246;9.648;2023-11-21T17:06:41;7.10;99.90
15386;DHT22;7791;47.246;9.648;2023-11-21T17:09:29;7.10;99.90
15386;DHT22;7791;47.246;9.648;2023-11-21T17:14:52;7.10;99.90
15386;DHT22;7791;47.246;9.648;2023-11-21T17:17:28;6.90;99.90
15386;DHT22;7791;47.246;9.648;2023-11-21T17:20:03;6.90;99.90
15386;DHT22;7791;47.246;9.648;2023-11-21T17:22:44;6.90;99.90
15386;DHT22;7791;47.246;9.648;2023-11-21T17:25:29;6.80;99.90
15386;DHT22;7791;47.246;9.648;2023-11-21T17:31:17;7.00;99.90
15386;DHT22;7791;47.246;9.648;2023-11-21T17:36:51;7.20;99.90
15386;DHT22;7791;47.246;9.648;2023-11-21T17:39:27;7.20;99.90
15386;DHT22;7791;47.246;9.648;2023-11-21T17:42:04;7.30;99.90
15386;DHT22;7791;47.246;9.648;2023-11-21T17:44:46;7.30;99.90
15386;DHT22;7791;47.246;9.648;2023-11-21T17:47:22;7.40;99.90
15386;DHT22;7791;47.246;9.648;2023-11-21T17:52:44;7.40;99.90
15386;DHT22;7791;47.246;9.648;2023-11-21T17:58:28;7.50;99.90
15386;DHT22;7791;47.246;9.648;2023-11-21T18:01:18;7.50;99.90
15386;DHT22;7791;47.246;9.648;2023-11-21T18:04:04;7.50;99.90
15386;DHT22;7791;47.246;9.648;2023-11-21T18:06:38;7.50;99.90
15386;DHT22;7791;47.246;9.648;2023-11-21T18:09:14;7.50;99.90
15386;DHT22;7791;47.246;9.648;2023-11-21T18:12:03;7.40;99.90
15386;DHT22;7791;47.246;9.648;2023-11-21T18:20:07;7.50;99.90
15386;DHT22;7791;47.246;9.648;2023-11-21T18:22:43;7.50;99.90
15386;DHT22;7791;47.246;9.648;2023-11-21T18:25:23;7.50;99.90
15386;DHT22;7791;47.246;9.648;2023-11-21T18:28:09;7.50;99.90
15386;DHT22;7791;47.246;9.648;2023-11-21T18:30:50;7.40;99.90
15386;DHT22;7791;47.246;9.648;2023-11-21T18:33:33;7.20;99.90
15386;DHT22;7791;47.246;9.648;2023-11-21T18:36:14;7.20;99.90
15386;DHT22;7791;47.246;9.648;2023-11-21T18:41:50;7.10;99.90
15386;DHT22;7791;47.246;9.648;2023-11-21T18:44:28;7.10;99.90
15386;DHT22;7791;47.246;9.648;2023-11-21T18:47:09;7.20;99.90
15386;DHT22;7791;47.246;9.648;2023-11-21T18:50:01;7.30;99.90
15386;DHT22;7791;47.246;9.648;2023-11-21T18:52:45;7.30;99.90
15386;DHT22;7791;47.246;9.648;2023-11-21T18:55:19;7.40;99.90
15386;DHT22;7791;47.246;9.648;2023-11-21T18:58:04;7.40;99.90
15386;DHT22;7791;47.246;9.648;2023-11-21T19:00:48;7.40;99.90
15386;DHT22;7791;47.246;9.648;2023-11-21T19:03:39;7.50;99.90
15386;DHT22;7791;47.246;9.648;2023-11-21T19:06:26;7.50;99.90
15386;DHT22;7791;47.246;9.648;2023-11-21T19:11:58;7.60;99.90
15386;DHT22;7791;47.246;9.648;2023-11-21T19:14:34;7.60;99.90
15386;DHT22;7791;47.246;9.648;2023-11-21T19:17:23;7.60;99.90
15386;DHT22;7791;47.246;9.648;2023-11-21T19:19:59;7.60;99.90
15386;DHT22;7791;47.246;9.648;2023-11-21T19:22:37;7.50;99.90
15386;DHT22;7791;47.246;9.648;2023-11-21T19:25:03;7.50;99.90
15386;DHT22;7791;47.246;9.648;2023-11-21T19:30:32;7.60;99.90
15386;DHT22;7791;47.246;9.648;2023-11-21T19:33:15;7.60;99.90
15386;DHT22;7791;47.246;9.648;2023-11-21T19:36:08;7.60;99.90
15386;DHT22;7791;47.246;9.648;2023-11-21T19:38:44;7.60;99.90
15386;DHT22;7791;47.246;9.648;2023-11-21T19:41:34;7.40;99.90
15386;DHT22;7791;47.246;9.648;2023-11-21T19:44:04;7.20;99.90
15386;DHT22;7791;47.246;9.648;2023-11-21T19:46:56;7.20;99.90
15386;DHT22;7791;47.246;9.648;2023-11-21T19:49:41;7.30;99.90
15386;DHT22;7791;47.246;9.648;2023-11-21T19:52:20;7.30;99.90
15386;DHT22;7791;47.246;9.648;2023-11-21T19:54:57;7.40;99.90
15386;DHT22;7791;47.246;9.648;2023-11-21T19:57:33;7.40;99.90
15386;DHT22;7791;47.246;9.648;2023-11-21T20:00:15;7.50;99.90
15386;DHT22;7791;47.246;9.648;2023-11-21T20:02:43;7.40;99.90
15386;DHT22;7791;47.246;9.648;2023-11-21T20:05:19;7.50;99.90
15386;DHT22;7791;47.246;9.648;2023-11-21T20:07:49;7.50;99.90
15386;DHT22;7791;47.246;9.648;2023-11-21T20:10:28;7.40;99.90